Date,TemperatureHighF,TemperatureAvgF,TemperatureLowF,DewpointHighF,DewpointAvgF,DewpointLowF,HumidityHigh,HumidityAvg,HumidityLow,PressureMaxIn,PressureMinIn,WindSpeedMaxMPH,WindSpeedAvgMPH,GustSpeedMaxMPH,PrecipitationSumIn
2013-1-22,58.1,37.2,27.0,40.6,25.5,20.7,80,64,41,30.25,30.17,7,0,7,0.00
2013-1-23,67.1,47.6,37.4,49.9,37.6,30.1,86,70,48,30.24,30.08,13,2,13,0.00
2013-1-24,49.3,37.3,30.7,38.9,27.8,24.9,87,70,45,30.19,30.05,13,3,13,0.00
2013-1-25,48.6,37.9,28.2,38.9,32.8,25.1,89,82,65,30.21,30.13,7,0,7,0.00
2013-1-26,57.4,47.6,44.4,51.6,38.9,32.8,87,73,54,30.20,30.01,8,1,8,0.00
2013-1-27,75.7,64.0,56.8,63.1,57.4,51.6,87,79,64,30.01,29.91,13,1,13,0.00
2013-1-28,77.0,71.4,67.1,63.1,61.6,60.0,79,71,62,29.95,29.83,18,2,18,0.00
2013-1-29,72.1,63.5,48.6,64.2,58.2,45.1,89,83,74,29.83,29.42,34,5,34,0.00
2013-1-30,48.3,39.9,26.4,45.2,31.9,21.7,90,73,55,30.03,29.48,34,14,35,0.00
2013-1-31,61.5,37.8,21.9,37.1,24.6,14.2,89,63,29,30.36,30.00,24,4,24,0.00
2013-2-1,48.0,32.9,19.0,22.4,17.8,13.2,83,56,34,30.41,30.15,15,2,15,0.00
2013-2-2,57.4,39.6,24.6,35.3,27.0,18.5,82,62,41,30.21,30.13,18,3,18,0.00
2013-2-3,63.9,47.1,38.1,33.2,30.7,26.7,73,56,29,30.25,29.95,14,3,14,0.00
2013-2-4,63.5,47.5,37.4,53.0,41.3,31.4,88,79,66,29.95,29.79,14,1,14,0.00
2013-2-5,64.9,44.2,35.4,52.5,39.5,32.0,89,84,63,30.00,29.87,0,0,0,0.00
2013-2-6,66.2,48.6,33.9,48.6,40.6,30.9,90,75,50,30.06,29.92,18,3,18,0.00
2013-2-7,64.9,55.2,48.0,56.5,49.7,44.0,89,82,72,29.98,29.80,14,1,14,0.00
2013-2-8,58.6,44.9,34.0,45.4,36.4,29.9,88,74,44,30.22,29.98,14,1,14,0.00
2013-2-9,47.5,40.9,35.2,41.5,35.3,31.5,87,81,68,30.17,29.80,22,8,22,0.00
2013-2-10,52.2,48.9,45.3,48.4,45.1,41.6,87,87,86,29.80,29.64,18,5,18,0.00
2013-2-14,65.5,48.8,37.2,39.6,34.1,27.2,77,58,36,30.27,29.94,15,2,15,0.00
2013-2-15,47.5,34.4,24.4,28.1,20.6,16.2,78,58,39,30.30,30.22,13,2,13,0.00
2013-2-16,63.1,36.2,25.0,37.1,23.8,19.1,83,64,38,30.29,29.98,13,0,13,0.00
2013-2-17,70.5,58.4,44.2,53.8,40.2,32.1,74,53,28,29.98,29.67,13,2,13,0.00
2013-2-18,70.3,44.8,25.0,54.9,31.6,20.0,81,61,41,30.27,29.58,23,3,23,0.00
2013-2-19,52.2,37.7,30.7,30.5,26.9,23.6,84,68,38,30.27,30.17,15,1,15,0.00
2013-2-20,35.8,31.0,30.0,30.5,27.4,26.3,87,86,81,30.19,30.00,0,0,0,0.00
2013-2-21,34.7,32.3,29.7,31.0,29.0,25.8,89,88,86,30.00,29.65,6,0,6,0.02
2013-2-22,37.4,31.3,24.6,31.8,24.4,19.8,89,76,61,30.09,29.86,22,6,22,0.10
2013-2-23,32.7,26.0,21.7,26.4,21.7,18.2,87,84,77,30.07,29.97,10,1,10,0.00
2013-3-11,48.7,37.0,27.3,37.0,27.8,23.7,87,71,44,30.17,29.92,15,4,15,0.00
2013-3-12,61.3,45.7,28.6,40.2,31.3,23.4,82,59,45,30.40,30.11,14,2,14,0.00
2013-3-13,62.4,44.0,30.9,38.6,28.2,25.6,85,59,27,30.41,30.25,7,0,7,0.00
2013-3-14,78.4,59.0,42.1,52.2,42.7,37.3,85,58,33,30.27,29.99,8,1,8,0.00
2013-3-15,84.0,70.4,58.1,53.8,48.5,44.4,66,47,32,29.99,29.75,9,2,9,0.00
2013-3-16,86.0,69.4,58.8,56.2,53.5,49.8,80,59,35,29.81,29.68,0,0,0,0.00
2013-3-17,59.7,50.5,48.7,53.5,47.0,45.4,90,88,80,29.74,29.63,14,4,14,0.00
2013-3-18,59.4,50.1,46.6,46.2,44.7,42.9,89,83,57,29.89,29.65,29,7,29,0.00
2013-3-19,66.4,49.4,30.2,41.2,32.6,25.1,83,55,34,30.27,30.04,12,1,12,0.00
2013-3-20,57.2,44.6,34.9,35.2,28.5,23.1,77,55,37,30.27,29.94,8,1,8,0.00
2013-3-21,46.2,38.3,35.2,36.2,31.7,22.6,89,79,39,29.94,29.73,13,6,13,0.00
2013-3-22,46.2,42.0,39.7,40.4,38.3,36.2,89,86,80,29.85,29.79,9,2,9,0.00
2013-3-23,44.4,42.6,35.4,41.2,39.3,30.2,90,88,81,29.84,29.65,20,4,20,0.00
2013-3-24,35.2,34.7,34.3,30.3,29.3,28.5,82,80,79,29.85,29.74,38,24,38,0.00
2013-5-3,63.3,47.7,37.4,40.8,36.4,32.2,87,68,36,30.08,29.85,12,2,12,0.00
2013-5-4,52.0,43.5,37.4,45.0,38.9,34.5,89,84,70,30.04,29.85,12,2,12,0.00
2013-5-5,63.9,54.3,46.2,49.3,46.2,42.5,89,75,56,30.05,29.96,12,3,12,0.00
2013-5-6,80.2,59.1,44.6,58.6,50.5,41.3,88,75,46,30.04,29.94,15,2,15,0.00
2013-5-7,93.4,68.1,49.6,62.4,54.3,45.9,87,65,33,30.03,29.92,0,0,0,0.00
2013-5-8,91.8,75.9,61.5,63.2,59.3,56.7,85,59,38,29.99,29.87,0,0,0,0.00
2013-5-9,87.1,74.5,62.8,65.4,61.9,55.8,82,66,48,30.00,29.87,17,1,17,0.00